Aviation Digital Data Service (ADDS)

Output produced by METARs form (0950 UTC 02 July 2015)
found at http://aviationweather.gov/adds/metars/
 
KINT 020540Z 0206/0306 23005KT 6SM HZ BKN110 BKN250 
     FM021530 24008KT P6SM SCT045 
     PROB30 0218/0222 VRB15G30KT 4SM -TSRA SCT025 BKN045CB